createdAt,value
2023-09-15T00:01:19.804Z,20.00
2023-09-15T00:04:21.769Z,20.20
2023-09-15T00:07:23.703Z,20.18
2023-09-15T00:10:25.936Z,20.15
2023-09-15T00:13:28.563Z,20.19
2023-09-15T00:16:31.433Z,19.97
2023-09-15T00:19:33.616Z,20.19
2023-09-15T00:22:36.140Z,20.19
2023-09-15T00:25:38.410Z,19.88
2023-09-15T00:28:40.931Z,20.19
2023-09-15T00:31:43.133Z,19.87
2023-09-15T00:34:45.012Z,20.12
2023-09-15T00:37:47.719Z,20.17
2023-09-15T00:40:49.582Z,20.15
2023-09-15T00:43:52.466Z,20.12
2023-09-15T00:46:55.576Z,20.09
2023-09-15T00:49:57.769Z,20.10
2023-09-15T00:53:11.980Z,20.06
2023-09-15T00:56:14.346Z,20.09
2023-09-15T00:59:16.511Z,20.05
2023-09-15T01:02:18.993Z,20.02
2023-09-15T01:05:25.919Z,20.11
2023-09-15T01:08:27.851Z,20.09
2023-09-15T01:11:29.758Z,20.09
2023-09-15T01:14:31.899Z,20.07
2023-09-15T01:17:56.101Z,20.12
2023-09-15T01:21:06.996Z,20.13
2023-09-15T01:24:11.611Z,20.14
2023-09-15T01:27:17.182Z,20.14
2023-09-15T01:30:20.726Z,20.13
2023-09-15T01:33:22.925Z,20.06
2023-09-15T01:36:24.931Z,20.19
2023-09-15T01:39:31.574Z,20.11
2023-09-15T01:42:34.119Z,20.16
2023-09-15T01:45:35.988Z,20.18
2023-09-15T01:48:38.329Z,20.17
2023-09-15T01:51:40.394Z,20.19
2023-09-15T01:54:42.779Z,20.19
2023-09-15T01:57:44.685Z,20.18
2023-09-15T02:00:47.313Z,20.20
2023-09-15T02:03:49.639Z,20.17
2023-09-15T02:06:51.632Z,20.13
2023-09-15T02:09:53.557Z,20.15
2023-09-15T02:12:55.457Z,20.16
2023-09-15T02:15:57.441Z,20.08
2023-09-15T02:18:59.522Z,19.97
2023-09-15T02:22:01.412Z,20.11
2023-09-15T02:25:03.385Z,20.11
2023-09-15T02:28:06.558Z,20.10
2023-09-15T02:31:08.640Z,20.07
2023-09-15T02:34:11.256Z,20.11
2023-09-15T02:37:16.301Z,20.10
2023-09-15T02:40:18.817Z,19.72
2023-09-15T02:43:20.776Z,20.01
2023-09-15T02:46:23.294Z,20.10
2023-09-15T02:49:25.327Z,20.13
2023-09-15T02:52:27.287Z,20.13
2023-09-15T02:55:29.134Z,20.08
2023-09-15T02:58:31.499Z,20.10
2023-09-15T03:01:33.481Z,20.09
2023-09-15T03:04:35.529Z,20.10
2023-09-15T03:07:40.867Z,20.06
2023-09-15T03:10:45.443Z,20.09
2023-09-15T03:13:47.471Z,20.07
2023-09-15T03:16:49.536Z,19.96
2023-09-15T03:19:51.459Z,20.00
2023-09-15T03:22:53.910Z,19.88
2023-09-15T03:26:04.270Z,19.94
2023-09-15T03:29:09.490Z,19.96
2023-09-15T03:32:11.410Z,19.95
2023-09-15T03:35:13.278Z,19.91
2023-09-15T03:38:15.167Z,19.94
2023-09-15T03:41:17.037Z,19.92
2023-09-15T03:44:19.028Z,19.77
2023-09-15T03:47:21.419Z,19.90
2023-09-15T03:50:23.583Z,19.88
2023-09-15T03:53:26.982Z,19.71
2023-09-15T03:56:28.988Z,19.77
2023-09-15T03:59:30.881Z,19.78
2023-09-15T04:02:33.229Z,19.78
2023-09-15T04:05:35.824Z,19.77
2023-09-15T04:08:37.970Z,19.77
2023-09-15T04:11:42.059Z,19.76
2023-09-15T04:14:43.882Z,19.67
2023-09-15T04:17:45.956Z,19.74
2023-09-15T04:20:51.133Z,19.57
2023-09-15T04:23:53.231Z,19.68
2023-09-15T04:26:55.164Z,19.70
2023-09-15T04:29:58.007Z,19.74
2023-09-15T04:33:06.027Z,19.71
2023-09-15T04:36:08.390Z,19.62
2023-09-15T04:39:12.281Z,19.71
2023-09-15T04:42:14.211Z,19.77
2023-09-15T04:45:16.557Z,19.79
2023-09-15T04:48:19.572Z,19.79
2023-09-15T04:51:21.613Z,19.74
2023-09-15T04:54:23.545Z,19.48
2023-09-15T04:57:26.137Z,19.73
2023-09-15T05:00:30.638Z,19.80
2023-09-15T05:03:34.762Z,19.86
2023-09-15T05:06:36.918Z,19.87
2023-09-15T05:09:39.201Z,19.90
2023-09-15T05:12:41.141Z,19.94
2023-09-15T05:15:44.203Z,20.01
2023-09-15T05:18:46.752Z,19.61
2023-09-15T05:21:48.899Z,20.04
2023-09-15T05:24:50.859Z,20.07
2023-09-15T05:27:53.738Z,20.12
2023-09-15T05:31:01.008Z,20.13
2023-09-15T05:34:05.702Z,20.22
2023-09-15T05:37:08.312Z,20.24
2023-09-15T05:40:11.048Z,20.28
2023-09-15T05:43:13.247Z,20.30
2023-09-15T05:46:15.112Z,20.54
2023-09-15T05:49:17.051Z,20.73
2023-09-15T05:52:19.129Z,21.03
2023-09-15T05:55:21.062Z,21.31
2023-09-15T05:58:22.976Z,21.56
2023-09-15T06:01:25.188Z,21.89
2023-09-15T06:04:27.210Z,21.96
2023-09-15T06:07:29.191Z,21.93
2023-09-15T06:10:31.115Z,21.91
2023-09-15T06:13:33.329Z,22.29
2023-09-15T06:16:37.581Z,22.62
2023-09-15T06:19:39.715Z,22.85
2023-09-15T06:22:41.574Z,23.25
2023-09-15T06:25:45.998Z,23.10
2023-09-15T06:28:48.545Z,23.12
2023-09-15T06:31:53.561Z,23.03
2023-09-15T06:34:55.893Z,22.88
2023-09-15T06:37:57.882Z,22.34
2023-09-15T06:41:02.350Z,22.41
2023-09-15T06:44:04.784Z,22.46
2023-09-15T06:47:07.424Z,22.58
2023-09-15T06:50:10.668Z,22.52
2023-09-15T06:53:12.769Z,22.52
2023-09-15T06:56:14.652Z,22.63
2023-09-15T06:59:16.534Z,22.65
2023-09-15T07:02:19.112Z,22.71
2023-09-15T07:05:21.481Z,22.73
2023-09-15T07:08:23.303Z,22.74
2023-09-15T07:11:26.457Z,22.80
2023-09-15T07:14:29.358Z,22.88
2023-09-15T07:17:31.358Z,23.00
2023-09-15T07:20:33.332Z,22.35
2023-09-15T07:23:35.149Z,23.39
2023-09-15T07:26:37.139Z,23.33
2023-09-15T07:29:39.484Z,23.42
2023-09-15T07:32:41.399Z,23.06
2023-09-15T07:35:43.490Z,23.38
2023-09-15T07:38:45.338Z,23.30
2023-09-15T07:41:47.320Z,22.98
2023-09-15T07:44:49.204Z,22.69
2023-09-15T07:47:51.258Z,22.56
2023-09-15T07:50:53.194Z,22.41
2023-09-15T07:53:55.916Z,21.90
2023-09-15T07:56:57.892Z,22.10
2023-09-15T08:00:00.644Z,21.98
2023-09-15T08:03:02.708Z,21.80
2023-09-15T08:06:04.771Z,22.29
2023-09-15T08:09:06.746Z,23.08
2023-09-15T08:12:08.704Z,23.79
2023-09-15T08:15:11.513Z,24.08
2023-09-15T08:18:15.373Z,24.35
2023-09-15T08:21:17.310Z,24.89
2023-09-15T08:24:21.372Z,25.21
2023-09-15T08:27:23.584Z,25.49
2023-09-15T08:30:25.751Z,25.78
2023-09-15T08:33:28.685Z,25.84
2023-09-15T08:36:30.638Z,25.58
2023-09-15T08:39:32.502Z,25.14
2023-09-15T08:42:34.662Z,25.27
2023-09-15T08:45:38.755Z,25.33
2023-09-15T08:48:42.367Z,25.41
2023-09-15T08:51:45.660Z,25.33
2023-09-15T08:54:48.078Z,25.41
2023-09-15T08:57:50.867Z,25.53
2023-09-15T09:00:56.130Z,25.78
2023-09-15T09:03:58.485Z,25.70
2023-09-15T09:07:02.952Z,25.46
2023-09-15T09:10:05.504Z,25.35
2023-09-15T09:13:07.633Z,25.33
2023-09-15T09:16:11.793Z,25.42
2023-09-15T09:19:14.425Z,25.45
2023-09-15T09:22:20.632Z,25.50
2023-09-15T09:25:27.199Z,25.48
2023-09-15T09:28:29.066Z,25.48
2023-09-15T09:31:31.418Z,25.68
2023-09-15T09:34:46.885Z,25.87
2023-09-15T09:37:50.108Z,26.25
2023-09-15T09:40:51.988Z,26.22
2023-09-15T09:43:53.941Z,26.07
2023-09-15T09:46:57.548Z,26.30
2023-09-15T09:49:59.554Z,26.34
2023-09-15T09:53:08.879Z,26.10
2023-09-15T09:56:11.038Z,25.86
2023-09-15T09:59:12.930Z,25.86
2023-09-15T10:02:15.053Z,25.73
2023-09-15T10:05:16.992Z,25.68
2023-09-15T10:08:19.771Z,25.55
2023-09-15T10:11:22.066Z,25.62
2023-09-15T10:14:25.201Z,25.98
2023-09-15T10:17:28.514Z,25.89
2023-09-15T10:20:31.599Z,25.62
2023-09-15T10:23:34.790Z,26.04
2023-09-15T10:26:42.940Z,26.13
2023-09-15T10:29:46.700Z,26.18
2023-09-15T10:32:49.703Z,25.80
2023-09-15T10:35:51.742Z,25.88
2023-09-15T10:38:53.735Z,25.86
2023-09-15T10:42:06.153Z,25.68
2023-09-15T10:45:12.742Z,25.74
2023-09-15T10:48:14.693Z,25.65
2023-09-15T10:51:19.508Z,26.08
2023-09-15T10:54:22.264Z,26.16
2023-09-15T10:57:24.510Z,26.23
2023-09-15T11:00:26.871Z,26.07
2023-09-15T11:03:29.871Z,26.12
2023-09-15T11:06:33.583Z,26.16
2023-09-15T11:09:35.701Z,26.23
2023-09-15T11:12:37.656Z,26.50
2023-09-15T11:15:39.904Z,26.56
2023-09-15T11:18:41.793Z,26.55
2023-09-15T11:21:45.004Z,26.62
2023-09-15T11:24:46.825Z,26.64
2023-09-15T11:27:50.530Z,26.49
2023-09-15T11:30:53.910Z,26.24
2023-09-15T11:33:57.936Z,26.49
2023-09-15T11:37:01.350Z,26.67
2023-09-15T11:40:04.399Z,26.66
2023-09-15T11:43:06.194Z,26.63
2023-09-15T11:46:10.996Z,26.49
2023-09-15T11:49:13.434Z,26.58
2023-09-15T11:52:15.881Z,26.69
2023-09-15T11:55:23.848Z,26.73
2023-09-15T11:58:26.042Z,26.87
2023-09-15T12:01:29.983Z,26.94
2023-09-15T12:04:32.209Z,27.00
2023-09-15T12:07:34.274Z,27.13
2023-09-15T12:10:36.270Z,26.93
2023-09-15T12:13:38.306Z,26.86
2023-09-15T12:16:40.825Z,26.93
2023-09-15T12:19:42.642Z,27.05
2023-09-15T12:22:45.492Z,26.89
2023-09-15T12:25:47.417Z,27.09
2023-09-15T12:28:50.237Z,27.14
2023-09-15T12:31:52.654Z,27.21
2023-09-15T12:34:55.425Z,27.18
2023-09-15T12:37:57.794Z,26.90
2023-09-15T12:40:59.606Z,26.72
2023-09-15T12:44:01.456Z,26.72
2023-09-15T12:47:05.649Z,26.92
2023-09-15T12:50:08.055Z,26.85
2023-09-15T12:53:10.018Z,26.77
2023-09-15T12:56:12.044Z,26.98
2023-09-15T12:59:14.469Z,27.05
2023-09-15T13:02:16.521Z,27.00
2023-09-15T13:05:18.641Z,26.95
2023-09-15T13:08:20.639Z,26.85
2023-09-15T13:11:22.453Z,26.63
2023-09-15T13:14:24.325Z,26.26
2023-09-15T13:17:26.252Z,26.24
2023-09-15T13:20:28.126Z,26.30
2023-09-15T13:23:29.993Z,26.42
2023-09-15T13:26:32.261Z,26.48
2023-09-15T13:29:34.286Z,26.09
2023-09-15T13:32:36.139Z,25.99
2023-09-15T13:35:37.954Z,25.71
2023-09-15T13:38:39.945Z,25.88
2023-09-15T13:41:41.742Z,25.71
2023-09-15T13:44:43.673Z,25.62
2023-09-15T13:47:45.690Z,25.45
2023-09-15T13:50:48.665Z,25.20
2023-09-15T13:53:50.777Z,25.58
2023-09-15T13:56:52.808Z,25.61
2023-09-15T13:59:54.854Z,25.50
2023-09-15T14:02:57.226Z,25.21
2023-09-15T14:05:59.434Z,25.19
2023-09-15T14:09:01.297Z,24.79
2023-09-15T14:12:04.045Z,25.05
2023-09-15T14:15:10.567Z,25.10
2023-09-15T14:18:13.861Z,25.16
2023-09-15T14:21:17.472Z,25.01
2023-09-15T14:24:19.952Z,25.08
2023-09-15T14:27:22.152Z,24.96
2023-09-15T14:30:24.367Z,25.00
2023-09-15T14:33:26.210Z,24.90
2023-09-15T14:36:28.048Z,24.73
2023-09-15T14:39:30.052Z,24.56
2023-09-15T14:42:33.138Z,24.48
2023-09-15T14:45:35.179Z,24.65
2023-09-15T14:48:37.136Z,24.43
2023-09-15T14:51:40.136Z,24.45
2023-09-15T14:54:42.104Z,24.47
2023-09-15T14:57:44.007Z,24.41
2023-09-15T15:00:46.019Z,24.32
2023-09-15T15:03:47.913Z,24.30
2023-09-15T15:06:50.229Z,24.05
2023-09-15T15:09:52.266Z,24.02
2023-09-15T15:12:54.142Z,24.10
2023-09-15T15:15:56.331Z,24.02
2023-09-15T15:19:05.758Z,24.06
2023-09-15T15:22:09.860Z,24.06
2023-09-15T15:25:11.942Z,23.91
2023-09-15T15:28:13.815Z,23.78
2023-09-15T15:31:18.207Z,23.69
2023-09-15T15:34:19.951Z,23.55
2023-09-15T15:37:23.399Z,23.57
2023-09-15T15:40:25.264Z,23.54
2023-09-15T15:43:27.365Z,23.18
2023-09-15T15:46:29.259Z,23.16
2023-09-15T15:49:32.026Z,22.89
2023-09-15T15:52:36.759Z,22.67
2023-09-15T15:55:38.592Z,22.93
2023-09-15T15:58:40.396Z,22.89
2023-09-15T16:01:42.249Z,22.88
2023-09-15T16:04:46.237Z,22.84
2023-09-15T16:07:48.059Z,22.80
2023-09-15T16:10:49.944Z,22.69
2023-09-15T16:13:51.845Z,22.59
2023-09-15T16:16:54.219Z,22.38
2023-09-15T16:19:58.247Z,22.50
2023-09-15T16:23:00.138Z,22.46
2023-09-15T16:26:04.990Z,21.95
2023-09-15T16:29:07.203Z,22.18
2023-09-15T16:32:09.227Z,22.17
2023-09-15T16:35:12.256Z,21.73
2023-09-15T16:38:15.230Z,22.03
2023-09-15T16:41:17.166Z,22.00
2023-09-15T16:44:19.019Z,21.90
2023-09-15T16:47:28.645Z,21.84
2023-09-15T16:50:30.693Z,21.66
2023-09-15T16:53:32.605Z,21.23
2023-09-15T16:56:34.449Z,21.27
2023-09-15T16:59:36.363Z,21.10
2023-09-15T17:02:38.785Z,21.09
2023-09-15T17:05:41.024Z,20.91
2023-09-15T17:08:42.998Z,20.85
2023-09-15T17:11:44.885Z,20.79
2023-09-15T17:14:48.114Z,20.79
2023-09-15T17:17:50.024Z,20.73
2023-09-15T17:20:52.014Z,20.60
2023-09-15T17:23:53.965Z,20.51
2023-09-15T17:26:56.899Z,20.43
2023-09-15T17:29:58.764Z,20.42
2023-09-15T17:33:01.602Z,20.36
2023-09-15T17:36:03.728Z,20.20
2023-09-15T17:39:06.410Z,20.13
2023-09-15T17:42:09.382Z,19.88
2023-09-15T17:45:12.274Z,20.05
2023-09-15T17:48:14.280Z,20.04
2023-09-15T17:51:16.163Z,19.99
2023-09-15T17:54:22.617Z,19.94
2023-09-15T17:57:24.792Z,19.81
2023-09-15T18:00:27.074Z,19.80
2023-09-15T18:03:29.198Z,19.87
2023-09-15T18:06:31.224Z,19.93
2023-09-15T18:09:35.352Z,19.93
2023-09-15T18:12:37.752Z,19.91
2023-09-15T18:15:39.795Z,19.96
2023-09-15T18:18:42.313Z,19.94
2023-09-15T18:21:44.231Z,19.82
2023-09-15T18:24:48.193Z,19.78
2023-09-15T18:27:50.125Z,19.67
2023-09-15T18:30:52.985Z,19.68
2023-09-15T18:33:56.316Z,19.60
2023-09-15T18:36:59.943Z,19.59
2023-09-15T18:40:01.827Z,19.56
2023-09-15T18:43:03.950Z,19.41
2023-09-15T18:46:06.351Z,19.43
2023-09-15T18:49:10.177Z,19.40
2023-09-15T18:52:12.067Z,19.42
2023-09-15T18:55:14.315Z,19.44
2023-09-15T18:58:16.262Z,19.37
2023-09-15T19:01:18.105Z,19.40
2023-09-15T19:04:20.004Z,19.40
2023-09-15T19:07:21.862Z,19.41
2023-09-15T19:10:24.455Z,19.41
2023-09-15T19:13:33.518Z,19.46
2023-09-15T19:16:36.125Z,19.19
2023-09-15T19:19:37.997Z,19.24
2023-09-15T19:22:40.541Z,19.52
2023-09-15T19:25:43.063Z,19.54
2023-09-15T19:28:47.900Z,19.46
2023-09-15T19:31:49.945Z,19.48
2023-09-15T19:34:52.636Z,19.13
2023-09-15T19:37:54.471Z,19.44
2023-09-15T19:40:56.323Z,19.43
2023-09-15T19:43:58.939Z,19.39
2023-09-15T19:47:00.900Z,19.15
2023-09-15T19:50:03.755Z,19.53
2023-09-15T19:53:06.780Z,19.52
2023-09-15T19:56:08.719Z,19.53
2023-09-15T19:59:10.586Z,19.56
2023-09-15T20:02:12.999Z,19.52
2023-09-15T20:05:15.737Z,19.56
2023-09-15T20:08:17.598Z,19.55
2023-09-15T20:11:19.494Z,19.50
2023-09-15T20:14:21.850Z,19.45
2023-09-15T20:17:26.465Z,19.37
2023-09-15T20:20:28.319Z,19.01
2023-09-15T20:23:30.891Z,19.16
2023-09-15T20:26:32.699Z,19.04
2023-09-15T20:29:34.577Z,18.85
2023-09-15T20:32:37.590Z,18.85
2023-09-15T20:35:44.839Z,18.84
2023-09-15T20:38:46.889Z,18.87
2023-09-15T20:41:49.079Z,18.76
2023-09-15T20:44:51.216Z,18.61
2023-09-15T20:47:54.600Z,18.65
2023-09-15T20:50:56.682Z,18.63
2023-09-15T20:53:58.496Z,18.57
2023-09-15T20:57:00.564Z,18.52
2023-09-15T21:00:02.720Z,18.34
2023-09-15T21:03:04.926Z,18.40
2023-09-15T21:06:06.841Z,18.40
2023-09-15T21:09:08.946Z,18.30
2023-09-15T21:12:16.057Z,18.19
2023-09-15T21:15:18.018Z,18.13
2023-09-15T21:18:20.050Z,17.92
2023-09-15T21:21:22.015Z,17.88
2023-09-15T21:24:23.928Z,17.78
2023-09-15T21:27:26.023Z,17.73
2023-09-15T21:30:28.023Z,17.70
2023-09-15T21:33:30.003Z,17.62
2023-09-15T21:36:31.984Z,17.66
2023-09-15T21:39:34.841Z,16.69
2023-09-15T21:42:36.796Z,17.20
2023-09-15T21:45:38.821Z,17.37
2023-09-15T21:48:40.886Z,17.27
2023-09-15T21:51:42.819Z,17.25
2023-09-15T21:54:44.697Z,17.20
2023-09-15T21:57:46.706Z,16.88
2023-09-15T22:00:49.860Z,17.18
2023-09-15T22:03:51.901Z,17.09
2023-09-15T22:06:53.830Z,17.13
2023-09-15T22:09:55.953Z,17.13
2023-09-15T22:12:58.633Z,16.53
2023-09-15T22:16:00.734Z,17.03
2023-09-15T22:19:02.749Z,17.02
2023-09-15T22:22:09.241Z,16.96
2023-09-15T22:25:11.954Z,16.93
2023-09-15T22:28:13.843Z,16.91
2023-09-15T22:31:16.285Z,16.69
2023-09-15T22:34:18.237Z,16.87
2023-09-15T22:37:20.842Z,16.83
2023-09-15T22:40:23.055Z,16.76
2023-09-15T22:43:24.913Z,16.77
2023-09-15T22:46:29.031Z,16.77
2023-09-15T22:49:31.965Z,16.68
2023-09-15T22:52:37.970Z,16.62
2023-09-15T22:55:39.995Z,16.37
2023-09-15T22:58:41.890Z,16.61
2023-09-15T23:01:44.037Z,16.60
2023-09-15T23:04:45.931Z,16.57
2023-09-15T23:07:47.859Z,16.35
2023-09-15T23:10:49.731Z,16.47
2023-09-15T23:13:51.591Z,16.42
2023-09-15T23:16:53.766Z,16.38
2023-09-15T23:19:58.468Z,16.34
2023-09-15T23:23:00.330Z,16.38
2023-09-15T23:26:02.430Z,16.34
2023-09-15T23:29:04.230Z,16.31
2023-09-15T23:32:07.230Z,16.35
2023-09-15T23:35:11.180Z,16.32
2023-09-15T23:38:13.464Z,16.26
2023-09-15T23:41:15.316Z,16.25
2023-09-15T23:44:17.809Z,16.27
2023-09-15T23:47:19.668Z,16.27
2023-09-15T23:50:25.158Z,16.21
2023-09-15T23:53:27.038Z,16.22
2023-09-15T23:56:29.513Z,16.17
2023-09-15T23:59:31.614Z,16.13
